createdAt,value
2024-04-23T00:01:23.140Z,3.47
2024-04-23T00:03:50.911Z,3.30
2024-04-23T00:06:18.510Z,3.65
2024-04-23T00:08:46.020Z,3.30
2024-04-23T00:11:13.615Z,3.50
2024-04-23T00:13:41.146Z,3.40
2024-04-23T00:16:08.619Z,3.20
2024-04-23T00:18:36.112Z,3.60
2024-04-23T00:21:03.662Z,3.50
2024-04-23T00:23:31.069Z,3.78
2024-04-23T00:25:58.429Z,3.33
2024-04-23T00:28:25.840Z,4.88
2024-04-23T00:30:53.272Z,3.90
2024-04-23T00:33:20.753Z,3.35
2024-04-23T00:35:48.223Z,3.75
2024-04-23T00:38:15.682Z,3.80
2024-04-23T00:40:43.084Z,4.00
2024-04-23T00:43:10.560Z,4.80
2024-04-23T00:45:43.803Z,4.55
2024-04-23T00:48:13.159Z,4.20
2024-04-23T00:50:41.498Z,4.32
2024-04-23T00:53:09.272Z,4.63
2024-04-23T00:55:39.088Z,4.07
2024-04-23T00:58:07.347Z,3.95
2024-04-23T01:00:35.471Z,4.75
2024-04-23T01:03:04.132Z,4.38
2024-04-23T01:05:31.674Z,4.30
2024-04-23T01:07:59.162Z,4.32
2024-04-23T01:10:26.630Z,5.40
2024-04-23T01:12:54.196Z,5.82
2024-04-23T01:15:24.664Z,5.25
2024-04-23T01:17:57.956Z,5.10
2024-04-23T01:20:25.600Z,5.35
2024-04-23T01:23:08.260Z,4.40
2024-04-23T01:25:37.591Z,4.97
2024-04-23T01:28:06.135Z,4.75
2024-04-23T01:30:35.901Z,4.95
2024-04-23T01:33:04.639Z,5.18
2024-04-23T01:35:32.388Z,5.13
2024-04-23T01:38:02.294Z,5.78
2024-04-23T01:40:30.723Z,5.40
2024-04-23T01:42:59.075Z,4.47
2024-04-23T01:45:27.000Z,4.85
2024-04-23T01:47:54.928Z,4.30
2024-04-23T01:50:22.532Z,4.97
2024-04-23T01:52:49.959Z,4.80
2024-04-23T01:55:19.887Z,5.05
2024-04-23T01:57:47.528Z,4.93
2024-04-23T02:00:19.208Z,5.13
2024-04-23T02:02:48.593Z,4.47
2024-04-23T02:05:16.468Z,5.10
2024-04-23T02:07:45.249Z,4.40
2024-04-23T02:10:12.850Z,4.25
2024-04-23T02:12:40.651Z,4.78
2024-04-23T02:15:08.511Z,4.90
2024-04-23T02:17:37.346Z,5.10
2024-04-23T02:20:06.326Z,4.90
2024-04-23T02:22:33.741Z,4.53
2024-04-23T02:25:01.182Z,4.50
2024-04-23T02:27:28.632Z,3.67
2024-04-23T02:29:56.000Z,4.25
2024-04-23T02:32:23.599Z,3.90
2024-04-23T02:34:51.091Z,3.92
2024-04-23T02:37:18.515Z,4.50
2024-04-23T02:39:45.854Z,4.00
2024-04-23T02:42:13.306Z,4.18
2024-04-23T02:44:40.730Z,4.35
2024-04-23T02:47:08.172Z,3.92
2024-04-23T02:49:35.715Z,4.68
2024-04-23T02:52:03.208Z,4.82
2024-04-23T02:54:30.583Z,4.65
2024-04-23T02:56:58.203Z,5.38
2024-04-23T02:59:25.655Z,4.88
2024-04-23T03:02:11.405Z,4.75
2024-04-23T03:04:38.988Z,4.40
2024-04-23T03:07:06.333Z,4.82
2024-04-23T03:09:33.758Z,4.70
2024-04-23T03:12:01.251Z,4.82
2024-04-23T03:14:28.647Z,5.25
2024-04-23T03:16:56.261Z,4.85
2024-04-23T03:19:24.032Z,5.45
2024-04-23T03:21:56.189Z,6.22
2024-04-23T03:24:24.844Z,5.70
2024-04-23T03:26:52.454Z,4.78
2024-04-23T03:29:20.774Z,5.35
2024-04-23T03:31:48.631Z,5.95
2024-04-23T03:34:16.261Z,6.70
2024-04-23T03:36:43.736Z,4.97
2024-04-23T03:39:11.255Z,6.05
2024-04-23T03:41:38.631Z,5.38
2024-04-23T03:44:06.316Z,5.60
2024-04-23T03:46:33.823Z,5.25
2024-04-23T03:49:01.206Z,5.53
2024-04-23T03:51:28.584Z,5.82
2024-04-23T03:53:55.918Z,6.00
2024-04-23T03:56:23.513Z,5.57
2024-04-23T03:58:50.866Z,4.72
2024-04-23T04:01:18.407Z,5.25
2024-04-23T04:04:04.319Z,4.97
2024-04-23T04:06:31.804Z,5.13
2024-04-23T04:09:01.402Z,5.07
2024-04-23T04:11:34.267Z,4.55
2024-04-23T04:14:02.336Z,5.10
2024-04-23T04:16:34.530Z,5.32
2024-04-23T04:19:02.905Z,5.28
2024-04-23T04:21:30.282Z,5.32
2024-04-23T04:23:57.669Z,5.88
2024-04-23T04:26:25.057Z,5.50
2024-04-23T04:28:52.648Z,5.30
2024-04-23T04:31:20.027Z,5.22
2024-04-23T04:33:47.537Z,5.22
2024-04-23T04:36:14.912Z,4.75
2024-04-23T04:38:42.302Z,5.03
2024-04-23T04:41:09.897Z,5.78
2024-04-23T04:43:37.366Z,4.43
2024-04-23T04:46:05.142Z,5.78
2024-04-23T04:48:32.533Z,4.85
2024-04-23T04:51:00.251Z,5.05
2024-04-23T04:53:27.665Z,5.00
2024-04-23T04:55:55.843Z,5.60
2024-04-23T04:58:23.228Z,5.18
2024-04-23T05:00:53.959Z,6.05
2024-04-23T05:03:21.454Z,6.03
2024-04-23T05:05:48.830Z,6.93
2024-04-23T05:08:16.247Z,6.30
2024-04-23T05:10:43.663Z,6.97
2024-04-23T05:13:11.354Z,6.25
2024-04-23T05:15:38.910Z,6.80
2024-04-23T05:18:06.915Z,6.38
2024-04-23T05:20:34.620Z,6.70
2024-04-23T05:23:02.175Z,6.30
2024-04-23T05:25:29.622Z,6.50
2024-04-23T05:27:57.044Z,6.63
2024-04-23T05:30:43.312Z,5.93
2024-04-23T05:33:10.773Z,5.55
2024-04-23T05:35:38.216Z,6.32
2024-04-23T05:38:05.792Z,5.78
2024-04-23T05:40:33.517Z,6.05
2024-04-23T05:43:01.220Z,4.90
2024-04-23T05:45:28.721Z,6.45
2024-04-23T05:48:33.531Z,5.63
2024-04-23T05:51:57.185Z,6.07
2024-04-23T05:55:20.731Z,5.22
2024-04-23T05:57:54.176Z,5.32
2024-04-23T06:00:21.593Z,5.68
2024-04-23T06:02:49.099Z,5.60
2024-04-23T06:05:16.634Z,5.47
2024-04-23T06:07:44.261Z,5.13
2024-04-23T06:10:11.751Z,6.30
2024-04-23T06:12:39.227Z,5.53
2024-04-23T06:15:07.181Z,6.35
2024-04-23T06:17:42.189Z,4.63
2024-04-23T06:20:15.161Z,4.80
2024-04-23T06:22:43.713Z,4.75
2024-04-23T06:25:12.092Z,4.70
2024-04-23T06:27:40.809Z,4.78
2024-04-23T06:30:18.167Z,4.78
2024-04-23T06:32:46.059Z,5.07
2024-04-23T06:35:17.168Z,4.80
2024-04-23T06:37:44.822Z,4.57
2024-04-23T06:40:12.794Z,4.13
2024-04-23T06:42:41.025Z,4.80
2024-04-23T06:45:08.609Z,4.57
2024-04-23T06:47:36.283Z,4.03
2024-04-23T06:50:04.515Z,4.53
2024-04-23T06:52:32.431Z,4.03
2024-04-23T06:55:02.430Z,4.18
2024-04-23T06:57:30.102Z,3.85
2024-04-23T06:59:57.726Z,3.58
2024-04-23T07:02:26.012Z,4.28
2024-04-23T07:04:54.210Z,4.28
2024-04-23T07:07:21.717Z,4.13
2024-04-23T07:09:49.541Z,4.28
2024-04-23T07:12:17.053Z,3.78
2024-04-23T07:14:44.697Z,3.80
2024-04-23T07:17:12.493Z,3.90
2024-04-23T07:19:40.024Z,4.00
2024-04-23T07:22:07.497Z,4.00
2024-04-23T07:24:35.021Z,3.30
2024-04-23T07:27:02.442Z,3.13
2024-04-23T07:29:29.837Z,3.55
2024-04-23T07:31:57.897Z,2.90
2024-04-23T07:34:25.449Z,3.42
2024-04-23T07:36:52.842Z,2.70
2024-04-23T07:39:20.835Z,4.13
2024-04-23T07:41:48.647Z,3.72
2024-04-23T07:44:16.032Z,3.83
2024-04-23T07:46:44.366Z,3.45
2024-04-23T07:49:11.940Z,3.38
2024-04-23T07:51:39.365Z,3.95
2024-04-23T07:54:07.207Z,3.67
2024-04-23T07:56:34.595Z,4.00
2024-04-23T07:59:02.198Z,2.97
2024-04-23T08:01:29.664Z,2.55
2024-04-23T08:03:57.330Z,2.72
2024-04-23T08:06:24.725Z,2.95
2024-04-23T08:08:52.272Z,2.72
2024-04-23T08:11:20.113Z,2.35
2024-04-23T08:13:47.615Z,3.15
2024-04-23T08:16:15.072Z,2.95
2024-04-23T08:18:42.640Z,2.70
2024-04-23T08:21:12.088Z,3.03
2024-04-23T08:23:39.519Z,2.60
2024-04-23T08:26:16.235Z,2.97
2024-04-23T08:28:45.273Z,2.80
2024-04-23T08:31:12.659Z,2.15
2024-04-23T08:33:40.206Z,2.97
2024-04-23T08:36:07.896Z,2.50
2024-04-23T08:38:35.283Z,2.33
2024-04-23T08:41:02.925Z,2.53
2024-04-23T08:43:44.259Z,2.75
2024-04-23T08:46:11.743Z,2.30
2024-04-23T08:48:42.404Z,2.30
2024-04-23T08:51:11.008Z,2.03
2024-04-23T08:53:40.333Z,2.30
2024-04-23T08:56:09.944Z,2.05
2024-04-23T08:58:38.634Z,2.13
2024-04-23T09:01:07.501Z,2.33
2024-04-23T09:03:45.679Z,2.20
2024-04-23T09:06:13.489Z,2.20
2024-04-23T09:08:41.923Z,2.22
2024-04-23T09:11:09.740Z,2.30
2024-04-23T09:13:37.515Z,2.13
2024-04-23T09:16:05.358Z,1.45
2024-04-23T09:18:33.345Z,1.92
2024-04-23T09:21:05.904Z,2.20
2024-04-23T09:23:33.526Z,1.85
2024-04-23T09:26:02.020Z,1.75
2024-04-23T09:28:35.698Z,1.60
2024-04-23T09:31:03.908Z,1.77
2024-04-23T09:33:33.302Z,2.03
2024-04-23T09:36:10.590Z,2.10
2024-04-23T09:38:42.380Z,2.13
2024-04-23T09:41:11.354Z,2.10
2024-04-23T09:43:39.578Z,1.88
2024-04-23T09:46:10.163Z,2.00
2024-04-23T09:48:41.211Z,1.77
2024-04-23T09:51:10.175Z,2.15
2024-04-23T09:53:39.332Z,2.30
2024-04-23T09:56:15.586Z,1.80
2024-04-23T09:58:43.152Z,1.83
2024-04-23T10:01:10.852Z,1.73
2024-04-23T10:03:45.122Z,1.60
2024-04-23T10:06:27.836Z,1.95
2024-04-23T10:09:14.186Z,1.83
2024-04-23T10:12:09.009Z,1.73
2024-04-23T10:14:57.759Z,1.98
2024-04-23T10:17:25.810Z,2.13
2024-04-23T10:19:55.192Z,2.00
2024-04-23T10:22:23.076Z,1.60
2024-04-23T10:24:51.141Z,1.90
2024-04-23T10:27:18.771Z,2.13
2024-04-23T10:29:47.821Z,3.30
2024-04-23T10:32:15.898Z,2.22
2024-04-23T10:34:43.968Z,2.42
2024-04-23T10:37:11.918Z,2.17
2024-04-23T10:39:40.554Z,1.75
2024-04-23T10:42:09.985Z,1.95
2024-04-23T10:44:39.033Z,1.70
2024-04-23T10:47:06.962Z,1.85
2024-04-23T10:49:38.681Z,1.63
2024-04-23T10:52:06.781Z,1.67
2024-04-23T10:54:35.104Z,1.50
2024-04-23T10:57:10.722Z,1.55
2024-04-23T10:59:38.722Z,1.50
2024-04-23T11:02:10.956Z,1.13
2024-04-23T11:04:42.945Z,1.40
2024-04-23T11:07:12.477Z,1.38
2024-04-23T11:09:44.360Z,1.10
2024-04-23T11:12:25.761Z,1.35
2024-04-23T11:14:57.439Z,1.30
2024-04-23T11:17:25.762Z,1.55
2024-04-23T11:19:56.195Z,1.52
2024-04-23T11:22:45.131Z,1.58
2024-04-23T11:25:21.077Z,1.50
2024-04-23T11:27:49.464Z,1.35
2024-04-23T11:30:17.159Z,1.45
2024-04-23T11:32:44.808Z,1.35
2024-04-23T11:35:15.320Z,1.20
2024-04-23T11:37:43.198Z,1.40
2024-04-23T11:40:10.950Z,1.30
2024-04-23T11:42:38.386Z,1.73
2024-04-23T11:45:06.508Z,1.38
2024-04-23T11:47:37.275Z,1.20
2024-04-23T11:50:09.185Z,1.60
2024-04-23T11:52:37.578Z,1.25
2024-04-23T11:55:05.587Z,1.52
2024-04-23T11:57:33.438Z,1.63
2024-04-23T12:00:05.278Z,1.35
2024-04-23T12:02:33.823Z,1.10
2024-04-23T12:05:04.794Z,1.10
2024-04-23T12:07:32.568Z,1.00
2024-04-23T12:10:04.969Z,1.30
2024-04-23T12:12:39.241Z,1.30
2024-04-23T12:15:08.158Z,1.53
2024-04-23T12:17:41.961Z,1.10
2024-04-23T12:20:13.027Z,1.45
2024-04-23T12:22:46.308Z,1.58
2024-04-23T12:25:15.934Z,1.33
2024-04-23T12:27:50.579Z,1.10
2024-04-23T12:30:20.870Z,1.10
2024-04-23T12:32:51.427Z,1.30
2024-04-23T12:35:22.399Z,1.33
2024-04-23T12:37:57.514Z,1.33
2024-04-23T12:42:52.389Z,1.40
2024-04-23T12:45:19.821Z,1.40
2024-04-23T12:47:47.481Z,1.15
2024-04-23T12:50:15.226Z,1.50
2024-04-23T12:52:42.811Z,1.50
2024-04-23T12:55:10.167Z,1.30
2024-04-23T12:57:37.684Z,1.48
2024-04-23T13:00:05.583Z,1.48
2024-04-23T13:02:34.144Z,1.30
2024-04-23T13:05:02.678Z,0.90
2024-04-23T13:07:30.095Z,1.70
2024-04-23T13:09:57.516Z,1.25
2024-04-23T13:12:24.944Z,1.55
2024-04-23T13:14:52.484Z,1.30
2024-04-23T13:17:19.858Z,1.50
2024-04-23T13:19:50.483Z,1.63
2024-04-23T13:22:24.275Z,3.30
2024-04-23T13:24:51.766Z,1.50
2024-04-23T13:27:19.269Z,1.52
2024-04-23T13:29:47.895Z,2.20
2024-04-23T13:32:16.462Z,1.45
2024-04-23T13:34:44.114Z,1.23
2024-04-23T13:37:11.459Z,1.20
2024-04-23T13:39:39.872Z,1.52
2024-04-23T13:42:07.557Z,1.15
2024-04-23T13:44:37.091Z,1.35
2024-04-23T13:47:05.533Z,1.27
2024-04-23T13:49:36.581Z,1.30
2024-04-23T13:52:04.649Z,1.30
2024-04-23T13:54:31.999Z,1.10
2024-04-23T13:56:59.533Z,1.58
2024-04-23T13:59:27.214Z,1.50
2024-04-23T14:01:55.015Z,1.20
2024-04-23T14:04:22.549Z,1.40
2024-04-23T14:06:54.347Z,1.45
2024-04-23T14:09:21.971Z,1.30
2024-04-23T14:11:49.584Z,1.20
2024-04-23T14:14:17.233Z,1.30
2024-04-23T14:16:44.963Z,1.15
2024-04-23T14:19:12.503Z,1.30
2024-04-23T14:21:41.988Z,1.10
2024-04-23T14:24:09.645Z,1.35
2024-04-23T14:26:37.145Z,1.20
2024-04-23T14:29:04.723Z,1.30
2024-04-23T14:31:33.138Z,1.30
2024-04-23T14:34:00.897Z,1.33
2024-04-23T14:36:29.226Z,1.50
2024-04-23T14:38:56.639Z,1.40
2024-04-23T14:41:24.046Z,1.30
2024-04-23T14:43:52.128Z,1.60
2024-04-23T14:46:20.387Z,1.30
2024-04-23T14:48:47.877Z,1.50
2024-04-23T14:51:15.348Z,1.40
2024-04-23T14:53:42.883Z,1.40
2024-04-23T14:56:11.396Z,1.45
2024-04-23T14:58:40.411Z,1.27
2024-04-23T15:01:14.243Z,1.48
2024-04-23T15:03:41.890Z,1.17
2024-04-23T15:06:10.684Z,1.40
2024-04-23T15:08:40.041Z,1.48
2024-04-23T15:11:09.388Z,1.50
2024-04-23T15:13:37.885Z,1.40
2024-04-23T15:16:09.757Z,1.70
2024-04-23T15:18:39.612Z,1.30
2024-04-23T15:21:09.241Z,1.02
2024-04-23T15:23:37.122Z,1.35
2024-04-23T15:26:05.357Z,1.15
2024-04-23T15:28:34.246Z,1.10
2024-04-23T15:31:02.714Z,1.55
2024-04-23T15:33:36.384Z,1.70
2024-04-23T15:36:16.818Z,1.25
2024-04-23T15:38:56.224Z,1.42
2024-04-23T15:41:23.792Z,2.05
2024-04-23T15:43:51.809Z,1.35
2024-04-23T15:46:19.311Z,1.50
2024-04-23T15:48:46.980Z,1.30
2024-04-23T15:51:14.565Z,1.15
2024-04-23T15:53:41.935Z,1.20
2024-04-23T15:56:12.498Z,1.08
2024-04-23T15:58:40.808Z,1.15
2024-04-23T16:01:09.864Z,1.13
2024-04-23T16:03:38.921Z,1.13
2024-04-23T16:06:07.095Z,1.13
2024-04-23T16:08:35.523Z,1.55
2024-04-23T16:11:06.188Z,1.92
2024-04-23T16:13:34.026Z,1.40
2024-04-23T16:16:03.783Z,1.00
2024-04-23T16:18:37.727Z,1.55
2024-04-23T16:21:09.541Z,1.35
2024-04-23T16:23:38.272Z,1.40
2024-04-23T16:26:11.348Z,1.25
2024-04-23T16:28:39.209Z,1.38
2024-04-23T16:31:08.549Z,1.02
2024-04-23T16:33:37.655Z,1.60
2024-04-23T16:36:07.442Z,1.08
2024-04-23T16:38:38.646Z,1.17
2024-04-23T16:41:09.900Z,1.10
2024-04-23T16:43:37.928Z,1.20
2024-04-23T16:46:06.310Z,1.30
2024-04-23T16:48:34.308Z,1.10
2024-04-23T16:51:02.345Z,1.20
2024-04-23T16:53:30.473Z,1.33
2024-04-23T16:55:58.924Z,1.23
2024-04-23T16:58:27.774Z,1.20
2024-04-23T17:00:55.609Z,1.13
2024-04-23T17:03:23.343Z,1.60
2024-04-23T17:05:51.542Z,1.48
2024-04-23T17:08:19.049Z,1.73
2024-04-23T17:10:47.717Z,1.40
2024-04-23T17:13:15.309Z,1.60
2024-04-23T17:15:43.854Z,1.33
2024-04-23T17:18:11.605Z,1.30
2024-04-23T17:20:39.287Z,1.23
2024-04-23T17:23:06.883Z,1.48
2024-04-23T17:25:38.040Z,1.10
2024-04-23T17:28:05.854Z,1.10
2024-04-23T17:30:33.216Z,1.35
2024-04-23T17:33:00.759Z,1.20
2024-04-23T17:35:28.254Z,1.15
2024-04-23T17:37:55.775Z,1.20
2024-04-23T17:40:23.187Z,1.10
2024-04-23T17:42:52.321Z,1.30
2024-04-23T17:45:19.789Z,1.00
2024-04-23T17:47:47.280Z,1.13
2024-04-23T17:50:15.251Z,1.10
2024-04-23T17:52:42.703Z,1.42
2024-04-23T17:55:10.109Z,1.40
2024-04-23T17:57:37.463Z,1.35
2024-04-23T18:00:07.958Z,1.30
2024-04-23T18:02:40.189Z,1.50
2024-04-23T18:05:09.396Z,1.25
2024-04-23T18:07:36.908Z,1.20
2024-04-23T18:10:04.579Z,1.30
2024-04-23T18:12:31.993Z,1.23
2024-04-23T18:14:59.431Z,1.25
2024-04-23T18:17:26.912Z,1.48
2024-04-23T18:19:54.497Z,1.58
2024-04-23T18:22:22.099Z,1.27
2024-04-23T18:24:49.586Z,1.27
2024-04-23T18:27:20.649Z,1.35
2024-04-23T18:29:48.567Z,1.20
2024-04-23T18:32:16.300Z,1.23
2024-04-23T18:34:43.766Z,1.00
2024-04-23T18:37:11.457Z,1.20
2024-04-23T18:39:38.992Z,1.20
2024-04-23T18:42:08.172Z,1.20
2024-04-23T18:44:36.340Z,1.30
2024-04-23T18:47:03.857Z,1.17
2024-04-23T18:49:31.598Z,1.10
2024-04-23T18:51:59.166Z,1.20
2024-04-23T18:54:26.838Z,1.20
2024-04-23T18:56:55.427Z,1.40
2024-04-23T18:59:23.153Z,1.50
2024-04-23T19:01:51.005Z,1.05
2024-04-23T19:04:18.434Z,1.05
2024-04-23T19:06:45.889Z,1.20
2024-04-23T19:09:13.261Z,1.27
2024-04-23T19:11:41.209Z,1.40
2024-04-23T19:14:14.951Z,1.48
2024-04-23T19:16:45.803Z,1.20
2024-04-23T19:19:13.544Z,1.23
2024-04-23T19:21:41.485Z,1.33
2024-04-23T19:24:08.919Z,1.23
2024-04-23T19:26:36.415Z,1.58
2024-04-23T19:29:04.413Z,1.40
2024-04-23T19:31:32.042Z,1.38
2024-04-23T19:34:01.628Z,1.40
2024-04-23T19:36:29.411Z,1.52
2024-04-23T19:38:56.830Z,1.75
2024-04-23T19:41:24.262Z,1.42
2024-04-23T19:43:54.048Z,1.38
2024-04-23T19:46:25.585Z,1.60
2024-04-23T19:48:56.323Z,1.35
2024-04-23T19:51:24.377Z,1.50
2024-04-23T19:53:52.279Z,1.30
2024-04-23T19:56:55.568Z,1.20
2024-04-23T19:59:24.767Z,1.90
2024-04-23T20:01:52.516Z,1.20
2024-04-23T20:04:20.159Z,1.33
2024-04-23T20:06:47.575Z,1.67
2024-04-23T20:09:16.947Z,1.40
2024-04-23T20:11:44.723Z,1.60
2024-04-23T20:14:12.380Z,1.52
2024-04-23T20:16:39.810Z,1.20
2024-04-23T20:19:07.243Z,1.20
2024-04-23T20:21:34.884Z,1.40
2024-04-23T20:24:02.419Z,1.63
2024-04-23T20:26:29.903Z,1.15
2024-04-23T20:28:58.339Z,1.40
2024-04-23T20:31:25.812Z,1.50
2024-04-23T20:33:53.511Z,1.20
2024-04-23T20:36:22.336Z,1.23
2024-04-23T20:38:49.800Z,1.50
2024-04-23T20:41:17.450Z,1.80
2024-04-23T20:43:45.080Z,1.52
2024-04-23T20:46:12.804Z,1.50
2024-04-23T20:48:40.486Z,1.48
2024-04-23T20:51:08.007Z,1.30
2024-04-23T20:53:35.387Z,1.40
2024-04-23T20:56:07.108Z,1.42
2024-04-23T20:58:35.237Z,1.08
2024-04-23T21:01:09.961Z,1.70
2024-04-23T21:03:38.598Z,1.52
2024-04-23T21:06:14.179Z,1.58
2024-04-23T21:08:42.680Z,1.75
2024-04-23T21:11:17.497Z,2.10
2024-04-23T21:13:46.067Z,1.80
2024-04-23T21:16:14.838Z,1.80
2024-04-23T21:18:43.340Z,1.58
2024-04-23T21:21:11.948Z,1.92
2024-04-23T21:23:39.376Z,1.77
2024-04-23T21:26:07.108Z,1.90
2024-04-23T21:28:34.671Z,2.08
2024-04-23T21:31:02.627Z,1.70
2024-04-23T21:33:30.938Z,1.70
2024-04-23T21:36:03.171Z,1.95
2024-04-23T21:38:31.809Z,2.03
2024-04-23T21:41:06.288Z,1.90
2024-04-23T21:43:35.091Z,1.90
2024-04-23T21:46:09.441Z,1.95
2024-04-23T21:48:37.404Z,1.87
2024-04-23T21:51:05.492Z,1.50
2024-04-23T21:53:33.072Z,1.80
2024-04-23T21:56:00.558Z,1.80
2024-04-23T21:58:28.190Z,1.85
2024-04-23T22:00:55.678Z,1.50
2024-04-23T22:03:23.184Z,1.92
2024-04-23T22:05:50.642Z,1.95
2024-04-23T22:08:18.124Z,2.00
2024-04-23T22:10:45.977Z,1.80
2024-04-23T22:13:13.674Z,2.00
2024-04-23T22:15:43.992Z,1.88
2024-04-23T22:18:12.625Z,1.90
2024-04-23T22:20:40.054Z,2.47
2024-04-23T22:23:07.650Z,1.58
2024-04-23T22:25:35.212Z,2.00
2024-04-23T22:28:02.729Z,1.90
2024-04-23T22:30:30.111Z,1.85
2024-04-23T22:32:58.188Z,1.70
2024-04-23T22:35:25.742Z,2.00
2024-04-23T22:37:54.520Z,1.92
2024-04-23T22:40:22.229Z,2.08
2024-04-23T22:42:49.785Z,2.25
2024-04-23T22:45:17.298Z,1.67
2024-04-23T22:47:44.761Z,2.00
2024-04-23T22:50:12.247Z,2.15
2024-04-23T22:52:39.681Z,1.70
2024-04-23T22:55:07.268Z,1.63
2024-04-23T22:57:34.690Z,2.10
2024-04-23T23:00:02.358Z,1.83
2024-04-23T23:02:29.923Z,2.17
2024-04-23T23:04:57.393Z,2.10
2024-04-23T23:07:24.852Z,2.10
2024-04-23T23:09:52.182Z,2.03
2024-04-23T23:12:21.056Z,1.80
2024-04-23T23:14:48.481Z,1.88
2024-04-23T23:17:17.918Z,1.90
2024-04-23T23:19:45.464Z,1.90
2024-04-23T23:22:13.886Z,2.22
2024-04-23T23:24:41.300Z,2.40
2024-04-23T23:27:08.702Z,2.05
2024-04-23T23:29:36.182Z,2.20
2024-04-23T23:32:03.715Z,2.15
2024-04-23T23:34:31.137Z,2.13
2024-04-23T23:36:59.336Z,2.28
2024-04-23T23:39:26.865Z,2.15
2024-04-23T23:41:54.315Z,2.40
2024-04-23T23:44:22.193Z,2.38
2024-04-23T23:46:50.856Z,2.30
2024-04-23T23:49:18.566Z,2.20
2024-04-23T23:51:45.930Z,2.25
2024-04-23T23:54:13.377Z,2.20
2024-04-23T23:56:40.783Z,2.28
2024-04-23T23:59:08.279Z,2.33
